sensor_id;sensor_type;location;lat;lon;timestamp;P1;durP1;ratioP1;P2;durP2;ratioP2
3795;SDS011;1913;50.660;7.834;2023-11-21T00:01:31;63.67;;;9.13;;
3795;SDS011;1913;50.660;7.834;2023-11-21T00:03:57;9.13;;;6.17;;
3795;SDS011;1913;50.660;7.834;2023-11-21T00:06:23;14.77;;;6.80;;
3795;SDS011;1913;50.660;7.834;2023-11-21T00:08:48;12.13;;;6.70;;
3795;SDS011;1913;50.660;7.834;2023-11-21T00:11:13;7.77;;;5.07;;
3795;SDS011;1913;50.660;7.834;2023-11-21T00:13:39;9.37;;;5.93;;
3795;SDS011;1913;50.660;7.834;2023-11-21T00:16:04;7.77;;;5.40;;
3795;SDS011;1913;50.660;7.834;2023-11-21T00:18:30;8.93;;;4.80;;
3795;SDS011;1913;50.660;7.834;2023-11-21T00:20:55;5.57;;;4.60;;
3795;SDS011;1913;50.660;7.834;2023-11-21T00:23:23;7.20;;;4.13;;
3795;SDS011;1913;50.660;7.834;2023-11-21T00:25:49;7.23;;;3.27;;
3795;SDS011;1913;50.660;7.834;2023-11-21T00:28:14;6.20;;;3.80;;
3795;SDS011;1913;50.660;7.834;2023-11-21T00:30:40;6.13;;;3.97;;
3795;SDS011;1913;50.660;7.834;2023-11-21T00:33:05;4.30;;;3.00;;
3795;SDS011;1913;50.660;7.834;2023-11-21T00:35:31;3.30;;;2.60;;
3795;SDS011;1913;50.660;7.834;2023-11-21T00:37:56;3.83;;;2.77;;
3795;SDS011;1913;50.660;7.834;2023-11-21T00:40:23;3.33;;;2.67;;
3795;SDS011;1913;50.660;7.834;2023-11-21T00:42:48;3.50;;;2.60;;
3795;SDS011;1913;50.660;7.834;2023-11-21T00:45:13;3.37;;;2.43;;
3795;SDS011;1913;50.660;7.834;2023-11-21T00:47:39;3.43;;;2.07;;
3795;SDS011;1913;50.660;7.834;2023-11-21T00:50:05;2.20;;;2.00;;
3795;SDS011;1913;50.660;7.834;2023-11-21T00:52:31;3.10;;;2.27;;
3795;SDS011;1913;50.660;7.834;2023-11-21T00:54:57;5.57;;;2.00;;
3795;SDS011;1913;50.660;7.834;2023-11-21T00:57:25;1.97;;;1.77;;
3795;SDS011;1913;50.660;7.834;2023-11-21T00:59:50;1.77;;;1.60;;
3795;SDS011;1913;50.660;7.834;2023-11-21T01:02:16;2.60;;;1.80;;
3795;SDS011;1913;50.660;7.834;2023-11-21T01:04:41;2.40;;;2.20;;
3795;SDS011;1913;50.660;7.834;2023-11-21T01:07:06;5.40;;;1.93;;
3795;SDS011;1913;50.660;7.834;2023-11-21T01:09:32;6.33;;;1.60;;
3795;SDS011;1913;50.660;7.834;2023-11-21T01:11:57;1.60;;;1.30;;
3795;SDS011;1913;50.660;7.834;2023-11-21T01:14:24;1.60;;;1.50;;
3795;SDS011;1913;50.660;7.834;2023-11-21T01:16:51;2.37;;;2.17;;
3795;SDS011;1913;50.660;7.834;2023-11-21T01:19:17;4.23;;;2.93;;
3795;SDS011;1913;50.660;7.834;2023-11-21T01:21:42;3.47;;;3.17;;
3795;SDS011;1913;50.660;7.834;2023-11-21T01:24:08;3.60;;;3.30;;
3795;SDS011;1913;50.660;7.834;2023-11-21T01:26:33;4.60;;;3.73;;
3795;SDS011;1913;50.660;7.834;2023-11-21T01:28:59;21.00;;;4.70;;
3795;SDS011;1913;50.660;7.834;2023-11-21T01:31:24;13.30;;;3.93;;
3795;SDS011;1913;50.660;7.834;2023-11-21T01:33:54;25.37;;;6.33;;
3795;SDS011;1913;50.660;7.834;2023-11-21T01:36:20;5.23;;;3.57;;
3795;SDS011;1913;50.660;7.834;2023-11-21T01:38:46;3.90;;;3.30;;
3795;SDS011;1913;50.660;7.834;2023-11-21T01:41:13;16.00;;;5.80;;
3795;SDS011;1913;50.660;7.834;2023-11-21T01:43:39;7.27;;;4.87;;
3795;SDS011;1913;50.660;7.834;2023-11-21T01:46:05;322.13;;;20.47;;
3795;SDS011;1913;50.660;7.834;2023-11-21T01:48:31;5.60;;;4.03;;
3795;SDS011;1913;50.660;7.834;2023-11-21T01:50:57;45.20;;;6.00;;
3795;SDS011;1913;50.660;7.834;2023-11-21T01:53:24;15.40;;;4.43;;
3795;SDS011;1913;50.660;7.834;2023-11-21T01:55:51;94.17;;;7.07;;
3795;SDS011;1913;50.660;7.834;2023-11-21T01:58:18;8.10;;;2.80;;
3795;SDS011;1913;50.660;7.834;2023-11-21T02:00:45;3.10;;;2.80;;
3795;SDS011;1913;50.660;7.834;2023-11-21T02:03:10;48.40;;;4.20;;
3795;SDS011;1913;50.660;7.834;2023-11-21T02:05:35;2.70;;;2.50;;
3795;SDS011;1913;50.660;7.834;2023-11-21T02:08:01;17.93;;;3.20;;
3795;SDS011;1913;50.660;7.834;2023-11-21T02:10:28;9.83;;;3.50;;
3795;SDS011;1913;50.660;7.834;2023-11-21T02:12:54;72.13;;;6.00;;
3795;SDS011;1913;50.660;7.834;2023-11-21T02:15:22;43.20;;;4.40;;
3795;SDS011;1913;50.660;7.834;2023-11-21T02:17:48;3.17;;;2.37;;
3795;SDS011;1913;50.660;7.834;2023-11-21T02:20:19;3.53;;;2.27;;
3795;SDS011;1913;50.660;7.834;2023-11-21T02:22:49;2.63;;;2.30;;
3795;SDS011;1913;50.660;7.834;2023-11-21T02:25:28;14.23;;;3.23;;
3795;SDS011;1913;50.660;7.834;2023-11-21T02:27:55;2.73;;;2.23;;
3795;SDS011;1913;50.660;7.834;2023-11-21T02:30:21;3.00;;;2.50;;
3795;SDS011;1913;50.660;7.834;2023-11-21T02:32:49;4.70;;;2.30;;
3795;SDS011;1913;50.660;7.834;2023-11-21T02:35:18;10.17;;;3.20;;
3795;SDS011;1913;50.660;7.834;2023-11-21T02:37:45;2.83;;;2.27;;
3795;SDS011;1913;50.660;7.834;2023-11-21T02:40:10;21.60;;;3.53;;
3795;SDS011;1913;50.660;7.834;2023-11-21T02:42:43;5.53;;;3.13;;
3795;SDS011;1913;50.660;7.834;2023-11-21T02:45:12;4.60;;;3.10;;
3795;SDS011;1913;50.660;7.834;2023-11-21T02:47:41;11.20;;;3.80;;
3795;SDS011;1913;50.660;7.834;2023-11-21T02:50:07;4.20;;;3.00;;
3795;SDS011;1913;50.660;7.834;2023-11-21T02:52:34;15.70;;;3.53;;
3795;SDS011;1913;50.660;7.834;2023-11-21T02:55:00;14.53;;;3.23;;
3795;SDS011;1913;50.660;7.834;2023-11-21T02:57:26;6.87;;;3.10;;
3795;SDS011;1913;50.660;7.834;2023-11-21T02:59:52;8.03;;;3.30;;
3795;SDS011;1913;50.660;7.834;2023-11-21T03:02:17;4.47;;;3.33;;
3795;SDS011;1913;50.660;7.834;2023-11-21T03:04:43;63.20;;;5.70;;
3795;SDS011;1913;50.660;7.834;2023-11-21T03:07:09;29.73;;;4.20;;
3795;SDS011;1913;50.660;7.834;2023-11-21T03:09:45;11.33;;;3.50;;
3795;SDS011;1913;50.660;7.834;2023-11-21T03:12:21;3.53;;;2.93;;
3795;SDS011;1913;50.660;7.834;2023-11-21T03:14:46;4.30;;;2.97;;
3795;SDS011;1913;50.660;7.834;2023-11-21T03:17:12;29.93;;;4.10;;
3795;SDS011;1913;50.660;7.834;2023-11-21T03:19:40;92.23;;;7.00;;
3795;SDS011;1913;50.660;7.834;2023-11-21T03:22:06;103.70;;;7.93;;
3795;SDS011;1913;50.660;7.834;2023-11-21T03:24:31;7.70;;;3.33;;
3795;SDS011;1913;50.660;7.834;2023-11-21T03:26:57;37.50;;;4.53;;
3795;SDS011;1913;50.660;7.834;2023-11-21T03:29:22;24.20;;;4.83;;
3795;SDS011;1913;50.660;7.834;2023-11-21T03:31:48;20.87;;;4.37;;
3795;SDS011;1913;50.660;7.834;2023-11-21T03:34:19;21.50;;;5.13;;
3795;SDS011;1913;50.660;7.834;2023-11-21T03:36:48;63.10;;;6.97;;
3795;SDS011;1913;50.660;7.834;2023-11-21T03:39:14;34.10;;;5.47;;
3795;SDS011;1913;50.660;7.834;2023-11-21T03:41:39;36.23;;;8.10;;
3795;SDS011;1913;50.660;7.834;2023-11-21T03:44:04;24.80;;;8.57;;
3795;SDS011;1913;50.660;7.834;2023-11-21T03:46:30;80.27;;;13.03;;
3795;SDS011;1913;50.660;7.834;2023-11-21T03:48:55;50.07;;;11.13;;
3795;SDS011;1913;50.660;7.834;2023-11-21T03:51:21;57.87;;;12.10;;
3795;SDS011;1913;50.660;7.834;2023-11-21T03:53:46;42.57;;;10.53;;
3795;SDS011;1913;50.660;7.834;2023-11-21T03:56:13;43.20;;;10.87;;
3795;SDS011;1913;50.660;7.834;2023-11-21T03:58:38;28.73;;;9.00;;
3795;SDS011;1913;50.660;7.834;2023-11-21T04:01:04;97.07;;;12.40;;
3795;SDS011;1913;50.660;7.834;2023-11-21T04:03:29;314.90;;;22.43;;
3795;SDS011;1913;50.660;7.834;2023-11-21T04:05:55;197.77;;;17.00;;
3795;SDS011;1913;50.660;7.834;2023-11-21T04:08:20;108.60;;;13.10;;
3795;SDS011;1913;50.660;7.834;2023-11-21T04:10:45;43.37;;;10.80;;
3795;SDS011;1913;50.660;7.834;2023-11-21T04:13:11;25.23;;;8.50;;
3795;SDS011;1913;50.660;7.834;2023-11-21T04:15:36;33.77;;;10.00;;
3795;SDS011;1913;50.660;7.834;2023-11-21T04:18:02;79.30;;;11.97;;
3795;SDS011;1913;50.660;7.834;2023-11-21T04:20:28;310.40;;;20.23;;
3795;SDS011;1913;50.660;7.834;2023-11-21T04:22:53;397.47;;;27.77;;
3795;SDS011;1913;50.660;7.834;2023-11-21T04:25:19;200.47;;;17.20;;
3795;SDS011;1913;50.660;7.834;2023-11-21T04:27:44;201.93;;;14.10;;
3795;SDS011;1913;50.660;7.834;2023-11-21T04:30:11;223.03;;;16.47;;
3795;SDS011;1913;50.660;7.834;2023-11-21T04:32:37;132.27;;;11.80;;
3795;SDS011;1913;50.660;7.834;2023-11-21T04:35:02;125.17;;;12.30;;
3795;SDS011;1913;50.660;7.834;2023-11-21T04:37:29;51.90;;;10.23;;
3795;SDS011;1913;50.660;7.834;2023-11-21T04:39:54;107.60;;;11.90;;
3795;SDS011;1913;50.660;7.834;2023-11-21T04:42:19;78.67;;;12.13;;
3795;SDS011;1913;50.660;7.834;2023-11-21T04:44:45;61.27;;;10.73;;
3795;SDS011;1913;50.660;7.834;2023-11-21T04:47:10;401.47;;;26.53;;
3795;SDS011;1913;50.660;7.834;2023-11-21T04:49:36;463.50;;;27.90;;
3795;SDS011;1913;50.660;7.834;2023-11-21T04:52:02;292.60;;;20.70;;
3795;SDS011;1913;50.660;7.834;2023-11-21T04:54:28;309.97;;;23.60;;
3795;SDS011;1913;50.660;7.834;2023-11-21T04:56:55;390.33;;;27.27;;
3795;SDS011;1913;50.660;7.834;2023-11-21T04:59:21;393.47;;;27.90;;
3795;SDS011;1913;50.660;7.834;2023-11-21T05:01:49;552.33;;;34.37;;
3795;SDS011;1913;50.660;7.834;2023-11-21T05:04:15;227.03;;;22.17;;
3795;SDS011;1913;50.660;7.834;2023-11-21T05:06:40;502.67;;;34.03;;
3795;SDS011;1913;50.660;7.834;2023-11-21T05:09:06;309.60;;;28.53;;
3795;SDS011;1913;50.660;7.834;2023-11-21T05:11:37;197.97;;;22.83;;
3795;SDS011;1913;50.660;7.834;2023-11-21T05:14:04;163.70;;;20.90;;
3795;SDS011;1913;50.660;7.834;2023-11-21T05:16:30;322.13;;;28.03;;
3795;SDS011;1913;50.660;7.834;2023-11-21T05:18:56;138.00;;;17.40;;
3795;SDS011;1913;50.660;7.834;2023-11-21T05:21:28;51.70;;;13.40;;
3795;SDS011;1913;50.660;7.834;2023-11-21T05:23:55;269.90;;;26.03;;
3795;SDS011;1913;50.660;7.834;2023-11-21T05:26:20;33.83;;;13.60;;
3795;SDS011;1913;50.660;7.834;2023-11-21T05:28:46;63.43;;;15.43;;
3795;SDS011;1913;50.660;7.834;2023-11-21T05:31:12;167.70;;;21.73;;
3795;SDS011;1913;50.660;7.834;2023-11-21T05:33:38;201.53;;;26.87;;
3795;SDS011;1913;50.660;7.834;2023-11-21T05:36:03;129.43;;;23.53;;
3795;SDS011;1913;50.660;7.834;2023-11-21T05:38:29;60.10;;;19.83;;
3795;SDS011;1913;50.660;7.834;2023-11-21T05:40:55;205.23;;;24.07;;
3795;SDS011;1913;50.660;7.834;2023-11-21T05:43:20;308.80;;;27.60;;
3795;SDS011;1913;50.660;7.834;2023-11-21T05:45:46;41.03;;;16.50;;
3795;SDS011;1913;50.660;7.834;2023-11-21T05:48:11;287.47;;;31.73;;
3795;SDS011;1913;50.660;7.834;2023-11-21T05:50:37;66.57;;;18.50;;
3795;SDS011;1913;50.660;7.834;2023-11-21T05:53:03;92.87;;;20.13;;
3795;SDS011;1913;50.660;7.834;2023-11-21T05:55:28;230.33;;;26.00;;
3795;SDS011;1913;50.660;7.834;2023-11-21T05:57:54;78.13;;;20.33;;
3795;SDS011;1913;50.660;7.834;2023-11-21T06:00:19;161.13;;;23.77;;
3795;SDS011;1913;50.660;7.834;2023-11-21T06:02:46;54.33;;;18.10;;
3795;SDS011;1913;50.660;7.834;2023-11-21T06:05:12;40.03;;;17.13;;
3795;SDS011;1913;50.660;7.834;2023-11-21T06:07:38;87.43;;;22.47;;
3795;SDS011;1913;50.660;7.834;2023-11-21T06:10:05;88.07;;;23.60;;
3795;SDS011;1913;50.660;7.834;2023-11-21T06:12:34;78.23;;;23.73;;
3795;SDS011;1913;50.660;7.834;2023-11-21T06:15:04;62.33;;;19.77;;
3795;SDS011;1913;50.660;7.834;2023-11-21T06:17:36;64.40;;;20.17;;
3795;SDS011;1913;50.660;7.834;2023-11-21T06:20:08;55.90;;;19.60;;
3795;SDS011;1913;50.660;7.834;2023-11-21T06:22:40;65.27;;;22.70;;
3795;SDS011;1913;50.660;7.834;2023-11-21T06:25:09;82.80;;;24.67;;
3795;SDS011;1913;50.660;7.834;2023-11-21T06:27:39;48.23;;;22.20;;
3795;SDS011;1913;50.660;7.834;2023-11-21T06:30:06;51.27;;;22.20;;
3795;SDS011;1913;50.660;7.834;2023-11-21T06:32:33;62.57;;;23.77;;
3795;SDS011;1913;50.660;7.834;2023-11-21T06:34:59;63.33;;;23.17;;
3795;SDS011;1913;50.660;7.834;2023-11-21T06:37:28;74.57;;;24.47;;
3795;SDS011;1913;50.660;7.834;2023-11-21T06:39:54;62.17;;;23.97;;
3795;SDS011;1913;50.660;7.834;2023-11-21T06:42:21;79.33;;;27.13;;
3795;SDS011;1913;50.660;7.834;2023-11-21T06:44:47;97.57;;;30.30;;
3795;SDS011;1913;50.660;7.834;2023-11-21T06:47:13;59.00;;;23.83;;
3795;SDS011;1913;50.660;7.834;2023-11-21T06:49:41;61.37;;;23.90;;
3795;SDS011;1913;50.660;7.834;2023-11-21T06:52:08;101.77;;;30.53;;
3795;SDS011;1913;50.660;7.834;2023-11-21T06:54:33;104.40;;;28.70;;
3795;SDS011;1913;50.660;7.834;2023-11-21T06:56:59;75.87;;;24.83;;
3795;SDS011;1913;50.660;7.834;2023-11-21T06:59:25;64.53;;;22.40;;
3795;SDS011;1913;50.660;7.834;2023-11-21T07:01:51;46.53;;;20.60;;
3795;SDS011;1913;50.660;7.834;2023-11-21T07:04:16;71.93;;;25.37;;
3795;SDS011;1913;50.660;7.834;2023-11-21T07:06:43;69.97;;;25.30;;
3795;SDS011;1913;50.660;7.834;2023-11-21T07:09:09;54.00;;;21.20;;
3795;SDS011;1913;50.660;7.834;2023-11-21T07:11:34;67.77;;;25.33;;
3795;SDS011;1913;50.660;7.834;2023-11-21T07:14:00;92.67;;;26.00;;
3795;SDS011;1913;50.660;7.834;2023-11-21T07:16:34;64.57;;;24.57;;
3795;SDS011;1913;50.660;7.834;2023-11-21T07:19:02;56.30;;;23.60;;
3795;SDS011;1913;50.660;7.834;2023-11-21T07:21:31;66.90;;;23.80;;
3795;SDS011;1913;50.660;7.834;2023-11-21T07:23:57;71.53;;;24.10;;
3795;SDS011;1913;50.660;7.834;2023-11-21T07:26:23;70.70;;;26.20;;
3795;SDS011;1913;50.660;7.834;2023-11-21T07:28:49;46.67;;;21.77;;
3795;SDS011;1913;50.660;7.834;2023-11-21T07:31:14;73.97;;;25.27;;
3795;SDS011;1913;50.660;7.834;2023-11-21T07:33:40;57.47;;;22.57;;
3795;SDS011;1913;50.660;7.834;2023-11-21T07:36:05;76.50;;;26.90;;
3795;SDS011;1913;50.660;7.834;2023-11-21T07:38:31;68.57;;;25.33;;
3795;SDS011;1913;50.660;7.834;2023-11-21T07:40:58;45.43;;;21.00;;
3795;SDS011;1913;50.660;7.834;2023-11-21T07:43:26;83.53;;;25.57;;
3795;SDS011;1913;50.660;7.834;2023-11-21T07:45:51;71.03;;;26.53;;
3795;SDS011;1913;50.660;7.834;2023-11-21T07:48:17;52.80;;;22.60;;
3795;SDS011;1913;50.660;7.834;2023-11-21T07:50:42;87.73;;;30.60;;
3795;SDS011;1913;50.660;7.834;2023-11-21T07:53:08;107.53;;;31.33;;
3795;SDS011;1913;50.660;7.834;2023-11-21T07:55:34;104.10;;;31.03;;
3795;SDS011;1913;50.660;7.834;2023-11-21T07:58:01;92.67;;;29.03;;
3795;SDS011;1913;50.660;7.834;2023-11-21T08:00:26;103.77;;;30.90;;
3795;SDS011;1913;50.660;7.834;2023-11-21T08:02:55;107.60;;;30.30;;
3795;SDS011;1913;50.660;7.834;2023-11-21T08:05:20;104.87;;;29.67;;
3795;SDS011;1913;50.660;7.834;2023-11-21T08:07:45;91.50;;;28.93;;
3795;SDS011;1913;50.660;7.834;2023-11-21T08:10:11;60.80;;;25.30;;
3795;SDS011;1913;50.660;7.834;2023-11-21T08:12:36;77.27;;;27.50;;
3795;SDS011;1913;50.660;7.834;2023-11-21T08:15:02;69.10;;;27.63;;
3795;SDS011;1913;50.660;7.834;2023-11-21T08:17:28;56.13;;;22.77;;
3795;SDS011;1913;50.660;7.834;2023-11-21T08:19:54;69.33;;;24.80;;
3795;SDS011;1913;50.660;7.834;2023-11-21T08:22:19;62.20;;;23.70;;
3795;SDS011;1913;50.660;7.834;2023-11-21T08:24:45;74.33;;;26.40;;
3795;SDS011;1913;50.660;7.834;2023-11-21T08:27:11;60.30;;;23.10;;
3795;SDS011;1913;50.660;7.834;2023-11-21T08:29:41;58.83;;;24.00;;
3795;SDS011;1913;50.660;7.834;2023-11-21T08:32:07;76.93;;;26.40;;
3795;SDS011;1913;50.660;7.834;2023-11-21T08:34:32;55.07;;;22.53;;
3795;SDS011;1913;50.660;7.834;2023-11-21T08:36:58;61.70;;;22.63;;
3795;SDS011;1913;50.660;7.834;2023-11-21T08:39:23;52.17;;;22.47;;
3795;SDS011;1913;50.660;7.834;2023-11-21T08:41:50;51.50;;;21.97;;
3795;SDS011;1913;50.660;7.834;2023-11-21T08:44:16;50.83;;;23.60;;
3795;SDS011;1913;50.660;7.834;2023-11-21T08:46:53;45.10;;;21.77;;
3795;SDS011;1913;50.660;7.834;2023-11-21T08:49:28;46.30;;;21.33;;
3795;SDS011;1913;50.660;7.834;2023-11-21T08:51:55;51.47;;;24.07;;
3795;SDS011;1913;50.660;7.834;2023-11-21T08:54:24;65.27;;;22.70;;
3795;SDS011;1913;50.660;7.834;2023-11-21T08:56:50;66.23;;;24.63;;
3795;SDS011;1913;50.660;7.834;2023-11-21T08:59:16;57.90;;;22.70;;
3795;SDS011;1913;50.660;7.834;2023-11-21T09:01:42;62.47;;;23.53;;
3795;SDS011;1913;50.660;7.834;2023-11-21T09:04:07;223.17;;;29.67;;
3795;SDS011;1913;50.660;7.834;2023-11-21T09:06:33;94.57;;;25.67;;
3795;SDS011;1913;50.660;7.834;2023-11-21T09:08:58;47.10;;;20.90;;
3795;SDS011;1913;50.660;7.834;2023-11-21T09:11:24;45.13;;;20.33;;
3795;SDS011;1913;50.660;7.834;2023-11-21T09:13:50;72.00;;;23.97;;
3795;SDS011;1913;50.660;7.834;2023-11-21T09:16:16;48.67;;;21.90;;
3795;SDS011;1913;50.660;7.834;2023-11-21T09:18:42;64.50;;;25.20;;
3795;SDS011;1913;50.660;7.834;2023-11-21T09:21:07;43.73;;;21.53;;
3795;SDS011;1913;50.660;7.834;2023-11-21T09:23:33;48.47;;;21.30;;
3795;SDS011;1913;50.660;7.834;2023-11-21T09:25:59;59.97;;;22.83;;
3795;SDS011;1913;50.660;7.834;2023-11-21T09:28:26;52.83;;;22.50;;
3795;SDS011;1913;50.660;7.834;2023-11-21T09:30:52;49.50;;;20.90;;
3795;SDS011;1913;50.660;7.834;2023-11-21T09:33:18;40.07;;;20.53;;
3795;SDS011;1913;50.660;7.834;2023-11-21T09:35:43;40.20;;;19.50;;
3795;SDS011;1913;50.660;7.834;2023-11-21T09:38:09;47.07;;;21.00;;
3795;SDS011;1913;50.660;7.834;2023-11-21T09:40:37;37.37;;;19.10;;
3795;SDS011;1913;50.660;7.834;2023-11-21T09:43:06;38.83;;;20.00;;
3795;SDS011;1913;50.660;7.834;2023-11-21T09:45:40;35.40;;;18.40;;
3795;SDS011;1913;50.660;7.834;2023-11-21T09:48:10;34.93;;;17.30;;
3795;SDS011;1913;50.660;7.834;2023-11-21T09:50:36;40.33;;;17.40;;
3795;SDS011;1913;50.660;7.834;2023-11-21T09:53:24;37.57;;;19.57;;
3795;SDS011;1913;50.660;7.834;2023-11-21T09:55:53;36.00;;;17.63;;
3795;SDS011;1913;50.660;7.834;2023-11-21T09:58:19;31.80;;;17.60;;
3795;SDS011;1913;50.660;7.834;2023-11-21T10:00:47;33.80;;;17.37;;
3795;SDS011;1913;50.660;7.834;2023-11-21T10:03:14;43.83;;;19.20;;
3795;SDS011;1913;50.660;7.834;2023-11-21T10:05:41;41.57;;;18.30;;
3795;SDS011;1913;50.660;7.834;2023-11-21T10:08:08;38.93;;;19.00;;
3795;SDS011;1913;50.660;7.834;2023-11-21T10:10:35;43.00;;;18.63;;
3795;SDS011;1913;50.660;7.834;2023-11-21T10:13:02;36.60;;;19.80;;
3795;SDS011;1913;50.660;7.834;2023-11-21T10:15:31;39.40;;;19.53;;
3795;SDS011;1913;50.660;7.834;2023-11-21T10:17:59;40.50;;;19.40;;
3795;SDS011;1913;50.660;7.834;2023-11-21T10:20:28;39.27;;;19.50;;
3795;SDS011;1913;50.660;7.834;2023-11-21T10:22:54;40.93;;;19.90;;
3795;SDS011;1913;50.660;7.834;2023-11-21T10:25:22;44.97;;;19.80;;
3795;SDS011;1913;50.660;7.834;2023-11-21T10:27:47;40.60;;;19.77;;
3795;SDS011;1913;50.660;7.834;2023-11-21T10:30:16;39.97;;;19.40;;
3795;SDS011;1913;50.660;7.834;2023-11-21T10:32:43;41.63;;;20.87;;
3795;SDS011;1913;50.660;7.834;2023-11-21T10:35:08;50.07;;;22.87;;
3795;SDS011;1913;50.660;7.834;2023-11-21T10:37:40;42.57;;;20.50;;
3795;SDS011;1913;50.660;7.834;2023-11-21T10:40:09;43.97;;;21.00;;
3795;SDS011;1913;50.660;7.834;2023-11-21T10:42:39;46.30;;;20.60;;
3795;SDS011;1913;50.660;7.834;2023-11-21T10:45:05;39.17;;;20.93;;
3795;SDS011;1913;50.660;7.834;2023-11-21T10:47:39;47.13;;;22.40;;
3795;SDS011;1913;50.660;7.834;2023-11-21T10:50:06;43.07;;;20.67;;
3795;SDS011;1913;50.660;7.834;2023-11-21T10:52:35;40.77;;;20.80;;
3795;SDS011;1913;50.660;7.834;2023-11-21T10:55:17;44.70;;;21.57;;
3795;SDS011;1913;50.660;7.834;2023-11-21T10:57:45;52.67;;;23.53;;
3795;SDS011;1913;50.660;7.834;2023-11-21T11:00:13;48.23;;;24.17;;
3795;SDS011;1913;50.660;7.834;2023-11-21T11:02:41;48.60;;;23.90;;
3795;SDS011;1913;50.660;7.834;2023-11-21T11:05:07;52.57;;;24.47;;
3795;SDS011;1913;50.660;7.834;2023-11-21T11:07:36;55.47;;;24.13;;
3795;SDS011;1913;50.660;7.834;2023-11-21T11:10:06;58.23;;;25.80;;
3795;SDS011;1913;50.660;7.834;2023-11-21T11:12:33;59.00;;;26.67;;
3795;SDS011;1913;50.660;7.834;2023-11-21T11:15:00;59.77;;;25.57;;
3795;SDS011;1913;50.660;7.834;2023-11-21T11:17:28;57.17;;;25.80;;
3795;SDS011;1913;50.660;7.834;2023-11-21T11:19:53;60.20;;;25.10;;
3795;SDS011;1913;50.660;7.834;2023-11-21T11:22:37;51.53;;;24.60;;
3795;SDS011;1913;50.660;7.834;2023-11-21T11:27:54;51.13;;;23.50;;
3795;SDS011;1913;50.660;7.834;2023-11-21T11:30:31;50.57;;;22.50;;
3795;SDS011;1913;50.660;7.834;2023-11-21T11:36:25;45.80;;;21.50;;
3795;SDS011;1913;50.660;7.834;2023-11-21T11:38:54;42.70;;;20.80;;
3795;SDS011;1913;50.660;7.834;2023-11-21T11:41:31;54.03;;;21.60;;
3795;SDS011;1913;50.660;7.834;2023-11-21T11:44:00;42.27;;;21.67;;
3795;SDS011;1913;50.660;7.834;2023-11-21T11:46:46;46.00;;;21.47;;
3795;SDS011;1913;50.660;7.834;2023-11-21T11:49:23;45.80;;;21.00;;
3795;SDS011;1913;50.660;7.834;2023-11-21T11:54:56;51.63;;;21.83;;
3795;SDS011;1913;50.660;7.834;2023-11-21T11:57:26;44.40;;;21.77;;
3795;SDS011;1913;50.660;7.834;2023-11-21T12:00:07;47.83;;;21.00;;
3795;SDS011;1913;50.660;7.834;2023-11-21T12:02:36;46.60;;;22.80;;
3795;SDS011;1913;50.660;7.834;2023-11-21T12:05:08;39.40;;;20.47;;
3795;SDS011;1913;50.660;7.834;2023-11-21T12:10:16;42.63;;;20.70;;
3795;SDS011;1913;50.660;7.834;2023-11-21T12:12:52;41.47;;;19.07;;
3795;SDS011;1913;50.660;7.834;2023-11-21T12:15:22;37.93;;;19.70;;
3795;SDS011;1913;50.660;7.834;2023-11-21T12:17:48;41.07;;;19.20;;
3795;SDS011;1913;50.660;7.834;2023-11-21T12:20:15;35.73;;;18.37;;
3795;SDS011;1913;50.660;7.834;2023-11-21T12:22:45;37.40;;;18.40;;
3795;SDS011;1913;50.660;7.834;2023-11-21T12:25:18;39.97;;;19.50;;
3795;SDS011;1913;50.660;7.834;2023-11-21T12:27:48;45.97;;;19.50;;
3795;SDS011;1913;50.660;7.834;2023-11-21T12:30:16;46.60;;;19.80;;
3795;SDS011;1913;50.660;7.834;2023-11-21T12:32:43;48.13;;;20.80;;
3795;SDS011;1913;50.660;7.834;2023-11-21T12:35:11;42.30;;;19.63;;
3795;SDS011;1913;50.660;7.834;2023-11-21T12:37:41;45.30;;;21.73;;
3795;SDS011;1913;50.660;7.834;2023-11-21T12:40:09;44.87;;;21.90;;
3795;SDS011;1913;50.660;7.834;2023-11-21T12:42:43;44.90;;;21.90;;
3795;SDS011;1913;50.660;7.834;2023-11-21T12:47:45;51.13;;;21.27;;
3795;SDS011;1913;50.660;7.834;2023-11-21T12:50:18;50.53;;;21.70;;
3795;SDS011;1913;50.660;7.834;2023-11-21T12:52:48;45.37;;;19.70;;
3795;SDS011;1913;50.660;7.834;2023-11-21T12:55:15;42.13;;;19.90;;
3795;SDS011;1913;50.660;7.834;2023-11-21T12:57:42;43.27;;;19.50;;
3795;SDS011;1913;50.660;7.834;2023-11-21T13:00:13;53.53;;;19.43;;
3795;SDS011;1913;50.660;7.834;2023-11-21T13:02:52;44.30;;;20.27;;
3795;SDS011;1913;50.660;7.834;2023-11-21T13:05:26;43.90;;;19.87;;
3795;SDS011;1913;50.660;7.834;2023-11-21T13:07:53;43.30;;;21.40;;
3795;SDS011;1913;50.660;7.834;2023-11-21T13:10:21;37.47;;;18.23;;
3795;SDS011;1913;50.660;7.834;2023-11-21T13:12:51;39.30;;;19.23;;
3795;SDS011;1913;50.660;7.834;2023-11-21T13:15:17;41.60;;;19.07;;
3795;SDS011;1913;50.660;7.834;2023-11-21T13:17:43;37.53;;;18.23;;
3795;SDS011;1913;50.660;7.834;2023-11-21T13:20:12;37.97;;;19.37;;
3795;SDS011;1913;50.660;7.834;2023-11-21T13:22:48;45.33;;;20.93;;
3795;SDS011;1913;50.660;7.834;2023-11-21T13:25:29;46.73;;;22.63;;
3795;SDS011;1913;50.660;7.834;2023-11-21T13:27:59;74.23;;;30.77;;
3795;SDS011;1913;50.660;7.834;2023-11-21T13:30:25;61.67;;;28.20;;
3795;SDS011;1913;50.660;7.834;2023-11-21T13:32:52;46.13;;;23.00;;
3795;SDS011;1913;50.660;7.834;2023-11-21T13:35:22;56.93;;;25.77;;
3795;SDS011;1913;50.660;7.834;2023-11-21T13:37:57;79.23;;;36.33;;
3795;SDS011;1913;50.660;7.834;2023-11-21T13:40:32;48.90;;;19.50;;
3795;SDS011;1913;50.660;7.834;2023-11-21T13:43:02;64.90;;;31.73;;
3795;SDS011;1913;50.660;7.834;2023-11-21T13:45:30;71.77;;;31.67;;
3795;SDS011;1913;50.660;7.834;2023-11-21T13:47:56;96.50;;;41.97;;
3795;SDS011;1913;50.660;7.834;2023-11-21T13:50:27;71.10;;;34.80;;
3795;SDS011;1913;50.660;7.834;2023-11-21T13:52:59;55.63;;;26.83;;
3795;SDS011;1913;50.660;7.834;2023-11-21T13:55:41;53.30;;;22.40;;
3795;SDS011;1913;50.660;7.834;2023-11-21T13:58:07;82.73;;;35.00;;
3795;SDS011;1913;50.660;7.834;2023-11-21T14:00:36;56.10;;;24.77;;
3795;SDS011;1913;50.660;7.834;2023-11-21T14:03:12;95.20;;;42.67;;
3795;SDS011;1913;50.660;7.834;2023-11-21T14:05:46;66.20;;;32.23;;
3795;SDS011;1913;50.660;7.834;2023-11-21T14:08:16;65.77;;;30.37;;
3795;SDS011;1913;50.660;7.834;2023-11-21T14:10:45;52.67;;;20.93;;
3795;SDS011;1913;50.660;7.834;2023-11-21T14:13:16;112.73;;;50.93;;
3795;SDS011;1913;50.660;7.834;2023-11-21T14:15:42;50.30;;;21.37;;
3795;SDS011;1913;50.660;7.834;2023-11-21T14:18:11;49.97;;;22.23;;
3795;SDS011;1913;50.660;7.834;2023-11-21T14:20:39;53.40;;;24.50;;
3795;SDS011;1913;50.660;7.834;2023-11-21T14:23:07;80.60;;;40.03;;
3795;SDS011;1913;50.660;7.834;2023-11-21T14:25:33;60.97;;;30.90;;
3795;SDS011;1913;50.660;7.834;2023-11-21T14:28:00;57.20;;;25.43;;
3795;SDS011;1913;50.660;7.834;2023-11-21T14:30:25;64.50;;;30.50;;
3795;SDS011;1913;50.660;7.834;2023-11-21T14:32:52;54.97;;;25.83;;
3795;SDS011;1913;50.660;7.834;2023-11-21T14:35:17;46.23;;;20.97;;
3795;SDS011;1913;50.660;7.834;2023-11-21T14:37:43;51.13;;;22.70;;
3795;SDS011;1913;50.660;7.834;2023-11-21T14:40:09;52.30;;;21.77;;
3795;SDS011;1913;50.660;7.834;2023-11-21T14:42:36;61.53;;;21.93;;
3795;SDS011;1913;50.660;7.834;2023-11-21T14:45:04;50.67;;;22.00;;
3795;SDS011;1913;50.660;7.834;2023-11-21T14:47:32;47.93;;;23.20;;
3795;SDS011;1913;50.660;7.834;2023-11-21T14:49:59;58.40;;;22.90;;
3795;SDS011;1913;50.660;7.834;2023-11-21T14:52:37;54.67;;;22.10;;
3795;SDS011;1913;50.660;7.834;2023-11-21T14:55:15;55.13;;;23.17;;
3795;SDS011;1913;50.660;7.834;2023-11-21T14:57:59;58.73;;;23.13;;
3795;SDS011;1913;50.660;7.834;2023-11-21T15:00:29;70.00;;;27.53;;
3795;SDS011;1913;50.660;7.834;2023-11-21T15:03:00;73.13;;;25.70;;
3795;SDS011;1913;50.660;7.834;2023-11-21T15:05:27;78.87;;;28.30;;
3795;SDS011;1913;50.660;7.834;2023-11-21T15:07:56;52.97;;;23.17;;